Nashoba, OK (74558)

5:22 PM CDT on April 25, 2017 (GMT -0500)
Sardis Lake Cabins | | Change Station

Elev 657 ft 34.66 °N, 95.32 °W | Updated 13 seconds ago

Overcast
Overcast
77.0 °F
Feels Like 79 °F
N
20.1
Wind Variable Wind from SSW
Gusts 22.6 mph

Today
High -- | Low -- °F
--% Chance of Precip.
Yesterday
High -- | Low -- °F
Precip. -- in
Pressure 29.46 in
Visibility 10.0 miles
Clouds Mostly Cloudy 3800 ft
Mostly Cloudy 4500 ft
Heat Index 79 °F
Dew Point 64 °F
Humidity 64%
Rainfall 0.00 in
Snow Depth Not available.
6:37 AM 8:00 PM
Waning Crescent, 0% visible
METAR KHHW 252215Z AUTO 18014G21KT 10SM BKN038 BKN045 27/18 A2946 RMK AO2 T02730184
Pressure 29.46 in
Visibility 10.0 miles
Clouds Mostly Cloudy 3800 ft
Mostly Cloudy 4500 ft
Heat Index 79 °F
Dew Point 64 °F
Humidity 64%
Rainfall 0.00 in
Snow Depth Not available.
6:37 AM 8:00 PM
Waning Crescent, 0% visible
METAR KHHW 252215Z AUTO 18014G21KT 10SM BKN038 BKN045 27/18 A2946 RMK AO2 T02730184

Get Severe Weather Alerts

Thanks for signing up!

Be on the lookout for a verification email in your inbox.

You'll start receiving the daily forecast at 8 AM.

×

10-Day Weather Forecast

Almanac

Astronomy

Apr. 25, 2017 Rise Set
Actual Time
Civil Twilight
Nautical Twilight
Astronomical Twilight
Moon
Length of Visible Light
Length of Day
Tomorrow will be .
, % of the Moon is Illuminated

Today's Extremes

State Highs State Lows

Community

WunderPhotos

WunderBlog® & News

Nearby

Air Quality

  Air Quality AQ Index Pollutant
Not available.

Snow Depth

Station Depth Elevation

Earthquake Activity

City Distance Mag. Time & Date
Minimum magnitude displayed is 2.5.

Coastal Water Temperatures

Place Temperature

Stations

Nearby Weather Stations

Station Location Temp. Windchill Dew Point Humidity Wind Precip. Elev Updated Type
                   

Watches & Warnings

There are currently no watches in effect.